• Join FlightAware (Why Join?)
  • Login
  • US Flag 
Trick or treat! (Boo!!) 
03:56AM EDT


 

Airport Tracker/Info


-or-


 

Live Flight TrackerFlight Track Log ✈ EJM53 ✈ 29-Aug-2013 ✈ KMVY - KBED

Flight Track Log - Related Links

Times and Time Zones

All times are in EDT time to prevent confusion due to time zone crossing. See the EJM53 flight status page for this flight to view local times or setup timezone preferences in your user account.

Time Position Orientation Groundspeed Altitude Reporting Facility
EDT Latitude Longitude Course Direction KTS MPH feet Rate Location/Type
07:55PM 41.7167 -70.7000 346° North 255 293 4,000  Level KA90
07:56PM 41.7667 -70.7500 323° Northwest 260 299 4,000  Level KA90
07:57PM 41.9022 -70.5694 317° Northwest  Level FlightAware Approximate
07:57PM 41.8333 -70.8167 323° Northwest 256 295 4,000  Level KA90
07:58PM 41.9658 -70.6488 317° Northwest  Level FlightAware Approximate
07:58PM 41.9000 -70.8667 331° Northwest 253 291 4,000  Level KA90
07:59PM 42.0290 -70.7288 317° Northwest  Level FlightAware Approximate
07:59PM 41.9500 -70.9167 323° Northwest 257 296 4,000  Level KA90
08:00PM 42.0922 -70.8088 317° Northwest  Level FlightAware Approximate
08:00PM 41.9500 -71.0167 270° West 280 322 4,000  Level KA90
08:01PM 41.9333 -71.1167 257° West 278 320 4,000  Level KA90
08:02PM 41.9667 -71.2000 298° West 264 304 4,000  Level KA90
08:03PM 42.0167 -71.2667 315° West 257 296 4,000  Level KA90
08:04PM 42.0833 -71.3000 340° North 255 293 4,000  Level KA90
08:06PM 42.1500 -71.3500 331° Northwest 254 292 4,000 -360 Level KA90
08:07PM 42.2167 -71.4000 331° Northwest 255 293 3,300 -540 Descending KA90
08:08PM 42.2667 -71.4500 324° Northwest 226 260 3,000 -180 Descending KA90
08:09PM 42.3167 -71.4833 334° Northwest 206 237 3,000  Level KA90
08:10PM 42.3667 -71.5167 334° Northwest 207 238 3,000  Level KA90
08:11PM 42.4167 -71.5500 334° Northwest 197 227 3,000  Level KA90
08:12PM 42.4833 -71.5500 360° North 192 221 3,000 -360 Level KA90
08:13PM 42.5000 -71.5000 66° East 184 212 2,300 -600 Descending KA90
08:14PM 42.4833 -71.4333 109° East 173 199 1,900 -540 Descending KA90
08:15PM 42.4833 -71.3833 90° East 155 178 1,300 -660 Descending KA90
08:16PM 42.4833 -71.3333 90° East 128 147 600 -720 Descending KA90
08:18PM 42.4667 -71.2833 43° Northeast  Level FlightAware Approximate